M/V Tuna — XUGC9 — position and weather

sailwx.info

Track history (hours):
 
Tides and Currents Weather Stations Pressure Air Temp Water Temp Dewpoint Dewpoint Depression Visibility Wind Speed Wind Dir Waves Ship Positions

M/V Tuna

Last reported at 2015-May-27 16:07 UTC. Time now 2015-May-28 19:58 UTC.
Position N 40°59' E 029°00'.

Length 114 m; draft 2.4 m.

Type: Cargo ship. MMSI: 514778000.

Date/timePositionNaut miles runAvg speedWind from/ knotsBaromVisibWave heightAir tempDewpointWater temp
2015-May-27 16:07N 40°59' E 029°00'2 4.3
2015-May-27 15:33N 40°57' E 029°01'7 7.2
2015-May-27 14:33N 40°53' E 029°09'2 1.8
2015-May-27 13:33N 40°52' E 029°11'0 0.0
2015-May-27 12:29N 40°52' E 029°11'0 0.0
2015-May-27 11:29N 40°52' E 029°11'0 0.0
2015-May-27 10:28N 40°52' E 029°11'0 0.0
2015-May-27 09:28N 40°52' E 029°11'0 0.0
2015-May-27 08:31N 40°52' E 029°11'0 0.0
2015-May-27 07:25N 40°52' E 029°11'0 0.0
2015-May-27 06:31N 40°52' E 029°11'17 0.4
2015-May-25 11:08N 40°46' E 029°33'5 6.0
2015-May-25 10:18N 40°46' E 029°26'0 0.0
2015-May-25 04:04N 40°46' E 029°26'2 4.2
2015-May-25 03:33N 40°44' E 029°24'6 5.9
2015-May-25 02:33N 40°45' E 029°16'7 6.8
2015-May-25 01:32N 40°48' E 029°08'7 6.7
2015-May-25 00:33N 40°51' E 029°00'6 6.2
2015-May-24 23:31N 40°57' E 028°57'  
2015-May-20 02:32N 46°11' E 030°22'0 0.0
2015-May-20 01:31N 46°11' E 030°22'0 0.0
2015-May-20 00:04N 46°11' E 030°22'0 0.0
2015-May-19 23:28N 46°11' E 030°22'0 0.0
2015-May-19 20:13N 46°11' E 030°22'  
Track history (hours):
 
Tides and Currents Weather Stations Pressure Air Temp Water Temp Dewpoint Dewpoint Depression Visibility Wind Speed Wind Dir Waves Ship Positions

M/V Tuna

Last reported at 2015-May-27 16:07 UTC. Time now 2015-May-28 19:58 UTC.
Position N 40°59' E 029°00'.

Length 114 m; draft 2.4 m.

Type: Cargo ship. MMSI: 514778000.

Date/timePositionNaut miles runAvg speedWind from/ knotsBaromVisibWave heightAir tempDewpointWater temp
2015-May-27 16:07N 40°59' E 029°00'2 4.3
2015-May-27 15:33N 40°57' E 029°01'7 7.2
2015-May-27 14:33N 40°53' E 029°09'2 1.8
2015-May-27 13:33N 40°52' E 029°11'0 0.0
2015-May-27 12:29N 40°52' E 029°11'0 0.0
2015-May-27 11:29N 40°52' E 029°11'0 0.0
2015-May-27 10:28N 40°52' E 029°11'0 0.0
2015-May-27 09:28N 40°52' E 029°11'0 0.0
2015-May-27 08:31N 40°52' E 029°11'0 0.0
2015-May-27 07:25N 40°52' E 029°11'0 0.0
2015-May-27 06:31N 40°52' E 029°11'17 0.4
2015-May-25 11:08N 40°46' E 029°33'5 6.0
2015-May-25 10:18N 40°46' E 029°26'0 0.0
2015-May-25 04:04N 40°46' E 029°26'2 4.2
2015-May-25 03:33N 40°44' E 029°24'6 5.9
2015-May-25 02:33N 40°45' E 029°16'7 6.8
2015-May-25 01:32N 40°48' E 029°08'7 6.7
2015-May-25 00:33N 40°51' E 029°00'6 6.2
2015-May-24 23:31N 40°57' E 028°57'  
2015-May-20 02:32N 46°11' E 030°22'0 0.0
2015-May-20 01:31N 46°11' E 030°22'0 0.0
2015-May-20 00:04N 46°11' E 030°22'0 0.0
2015-May-19 23:28N 46°11' E 030°22'0 0.0
2015-May-19 20:13N 46°11' E 030°22'  

Dump ship's entire track history